EDMC weather

Blaubeuren Airport
Blaubeuren, Baden-W├╝rttemberg, Germany

Public forecast

Using degrees Celsius for public forecast. Weather courtesy of forecast.io.

METAR (pilot weather report)

Closest report is Laupheim Air Base, 12.8 nm (23.7 km) SSE. Retrieved 2019/09/15 06:20 UTC (11 minutes ago):

ETHL 150620Z 22002KT 0900 FG 11/10 Q1026 AMB

TAF (pilot weather forecast)

Forecast is more than 12 hours old.

Closest forecast is Laupheim Air Base, 12.8 nm (23.7 km) SSE. Retrieved 2017/01/30 06:45 UTC (3 years ago):

TAF TAF COR ETHL 300542Z 3006/3018 22005KT 4000 BR SCT100 BKN220 BECMG 3008/3010 23005KT 6000 RA SCT040 BKN060 TEMPO 3009/3018 22012KT 3000 -FZRA BKN012 BKN020